Terminal Aerodrome Forecast
Issued by NWS

Home | Current Version | Previous Version | Text Only | Print | Product List | Glossary On
Versions: 1 2 3 4 5 6 7 8 9 10 11 12 13 14 15 16 17 18 19 20
000
FTUS41 KPBZ 051333 AAA
TAFLBE
TAF AMD
KLBE 051333Z 0514/0612 26012G20KT P6SM BKN018
     FM051430 27010G16KT P6SM BKN025
     FM051800 28009KT P6SM BKN035
     FM052200 VRB03KT P6SM BKN200=

USA.gov is the U.S. government's official web portal to all federal, state and local government web resources and services.